createdAt,value
2017-10-21T00:00:01.134Z,0
2017-10-21T00:01:01.122Z,0
2017-10-21T00:02:00.789Z,0
2017-10-21T00:03:01.109Z,0
2017-10-21T00:04:00.777Z,0
2017-10-21T00:05:01.094Z,0
2017-10-21T00:06:01.085Z,0
2017-10-21T00:07:01.073Z,0
2017-10-21T00:08:01.061Z,0
2017-10-21T00:09:01.066Z,0
2017-10-21T00:10:01.059Z,0
2017-10-21T00:11:01.051Z,0
2017-10-21T00:12:01.030Z,0
2017-10-21T00:13:01.030Z,0
2017-10-21T00:14:01.013Z,0
2017-10-21T00:15:00.686Z,0
2017-10-21T00:16:01.007Z,0
2017-10-21T00:17:01.002Z,0
2017-10-21T00:18:00.985Z,0
2017-10-21T00:19:00.981Z,0
2017-10-21T00:20:00.970Z,0
2017-10-21T00:21:00.959Z,0
2017-10-21T00:22:00.631Z,0
2017-10-21T00:23:00.948Z,0
2017-10-21T00:24:00.617Z,0
2017-10-21T00:25:00.932Z,0
2017-10-21T00:26:00.597Z,0
2017-10-21T00:27:00.588Z,0
2017-10-21T00:28:00.898Z,0
2017-10-21T00:29:00.899Z,0
2017-10-21T00:30:00.895Z,0
2017-10-21T00:31:00.882Z,0
2017-10-21T00:32:00.873Z,0
2017-10-21T00:33:00.560Z,0
2017-10-21T00:34:00.853Z,0
2017-10-21T00:35:00.524Z,0
2017-10-21T00:36:00.841Z,0
2017-10-21T00:37:00.837Z,0
2017-10-21T00:38:00.821Z,0
2017-10-21T00:39:00.815Z,0
2017-10-21T00:40:00.811Z,0
2017-10-21T00:41:00.795Z,0
2017-10-21T00:42:00.794Z,0
2017-10-21T00:43:00.783Z,0
2017-10-21T00:44:00.780Z,0
2017-10-21T00:45:00.436Z,0
2017-10-21T00:46:00.758Z,0
2017-10-21T00:47:00.432Z,0
2017-10-21T00:48:00.738Z,0
2017-10-21T00:49:00.728Z,0
2017-10-21T00:50:00.717Z,0
2017-10-21T00:51:00.387Z,0
2017-10-21T00:52:00.383Z,0
2017-10-21T00:53:00.375Z,0
2017-10-21T00:54:00.689Z,0
2017-10-21T00:55:00.352Z,0
2017-10-21T00:56:00.346Z,0
2017-10-21T00:57:00.661Z,0
2017-10-21T00:57:59.684Z,0
2017-10-21T00:59:00.648Z,0
2017-10-21T01:00:00.640Z,0
2017-10-21T01:01:00.623Z,0
2017-10-21T01:02:00.625Z,0
2017-10-21T01:03:00.615Z,0
2017-10-21T01:04:00.635Z,0
2017-10-21T01:05:00.272Z,0
2017-10-21T01:06:00.585Z,0
2017-10-21T01:07:00.583Z,0
2017-10-21T01:08:00.246Z,0
2017-10-21T01:09:00.233Z,0
2017-10-21T01:10:00.556Z,0
2017-10-21T01:11:00.223Z,0
2017-10-21T01:12:00.214Z,0
2017-10-21T01:13:00.533Z,0
2017-10-21T01:14:00.521Z,0
2017-10-21T01:14:59.869Z,0
2017-10-21T01:16:00.190Z,0
2017-10-21T01:17:00.176Z,0
2017-10-21T01:18:00.494Z,0
2017-10-21T01:19:00.512Z,0
2017-10-21T01:20:00.148Z,0
2017-10-21T01:20:59.815Z,0
2017-10-21T01:22:00.461Z,0
2017-10-21T01:23:00.449Z,0
2017-10-21T01:24:00.119Z,0
2017-10-21T01:25:00.448Z,0
2017-10-21T01:26:00.424Z,0
2017-10-21T01:27:00.419Z,0
2017-10-21T01:28:00.410Z,0
2017-10-21T01:29:00.411Z,0
2017-10-21T01:30:00.073Z,0
2017-10-21T01:31:00.060Z,0
2017-10-21T01:32:00.378Z,0
2017-10-21T01:33:00.371Z,0
2017-10-21T01:34:00.036Z,0
2017-10-21T01:35:00.361Z,0
2017-10-21T01:36:00.348Z,0
2017-10-21T01:37:00.021Z,0
2017-10-21T01:37:59.998Z,0
2017-10-21T01:39:00.006Z,0
2017-10-21T01:40:00.308Z,0
2017-10-21T01:41:00.301Z,0
2017-10-21T01:41:59.973Z,0
2017-10-21T01:43:00.288Z,0
2017-10-21T01:44:00.293Z,0
2017-10-21T01:44:59.636Z,0
2017-10-21T01:46:00.263Z,0
2017-10-21T01:46:59.933Z,0
2017-10-21T01:48:00.254Z,0
2017-10-21T01:48:59.922Z,0
2017-10-21T01:50:00.236Z,0
2017-10-21T01:51:00.224Z,0
2017-10-21T01:52:00.229Z,0
2017-10-21T01:53:00.212Z,0
2017-10-21T01:54:00.210Z,0
2017-10-21T01:54:59.873Z,0
2017-10-21T01:55:59.865Z,0
2017-10-21T01:57:00.182Z,0
2017-10-21T01:58:00.180Z,0
2017-10-21T01:58:59.845Z,0
2017-10-21T01:59:59.837Z,0
2017-10-21T02:00:59.831Z,0
2017-10-21T02:01:59.500Z,0
2017-10-21T02:03:00.144Z,0
2017-10-21T02:04:00.125Z,0
2017-10-21T02:04:59.808Z,0
2017-10-21T02:06:00.109Z,0
2017-10-21T02:07:00.100Z,0
2017-10-21T02:08:00.095Z,0
2017-10-21T02:09:00.095Z,0
2017-10-21T02:09:59.757Z,0
2017-10-21T02:10:59.748Z,0
2017-10-21T02:12:00.060Z,0
2017-10-21T02:13:00.051Z,0
2017-10-21T02:14:00.058Z,0
2017-10-21T02:14:59.393Z,0
2017-10-21T02:15:59.709Z,0
2017-10-21T02:17:00.027Z,0
2017-10-21T02:17:59.695Z,0
2017-10-21T02:19:00.013Z,0
2017-10-21T02:20:00.003Z,0
2017-10-21T02:20:59.992Z,0
2017-10-21T02:21:59.981Z,0
2017-10-21T02:22:59.653Z,0
2017-10-21T02:23:59.972Z,0
2017-10-21T02:24:59.960Z,0
2017-10-21T02:25:59.634Z,0
2017-10-21T02:26:59.941Z,0
2017-10-21T02:27:59.938Z,0
2017-10-21T02:28:59.929Z,0
2017-10-21T02:29:59.593Z,0
2017-10-21T02:30:59.924Z,0
2017-10-21T02:31:59.583Z,0
2017-10-21T02:32:59.896Z,0
2017-10-21T02:33:59.897Z,0
2017-10-21T02:34:59.883Z,0
2017-10-21T02:35:59.874Z,0
2017-10-21T02:36:59.868Z,0
2017-10-21T02:37:59.536Z,0
2017-10-21T02:38:59.854Z,0
2017-10-21T02:39:59.839Z,0
2017-10-21T02:40:59.517Z,0
2017-10-21T02:41:59.504Z,0
2017-10-21T02:42:59.493Z,0
2017-10-21T02:43:59.490Z,0
2017-10-21T02:44:59.483Z,0
2017-10-21T02:45:59.799Z,0
2017-10-21T02:46:59.466Z,0
2017-10-21T02:47:59.448Z,0
2017-10-21T02:48:59.443Z,0
2017-10-21T02:49:59.808Z,0
2017-10-21T02:50:59.432Z,0
2017-10-21T02:51:59.744Z,0
2017-10-21T02:52:59.412Z,0
2017-10-21T02:53:59.770Z,0
2017-10-21T02:54:59.720Z,0
2017-10-21T02:55:59.713Z,0
2017-10-21T02:56:59.379Z,0
2017-10-21T02:57:59.700Z,0
2017-10-21T02:58:59.684Z,0
2017-10-21T02:59:59.359Z,0
2017-10-21T03:00:59.700Z,0
2017-10-21T03:01:59.669Z,0
2017-10-21T03:02:59.339Z,0
2017-10-21T03:03:59.329Z,0
2017-10-21T03:04:59.639Z,0
2017-10-21T03:05:59.641Z,0
2017-10-21T03:06:59.628Z,0
2017-10-21T03:07:59.612Z,0
2017-10-21T03:08:59.603Z,0
2017-10-21T03:09:59.603Z,0
2017-10-21T03:10:59.594Z,0
2017-10-21T03:11:59.591Z,0
2017-10-21T03:12:59.247Z,0
2017-10-21T03:13:59.244Z,0
2017-10-21T03:14:59.563Z,0
2017-10-21T03:15:59.254Z,0
2017-10-21T03:16:59.544Z,0
2017-10-21T03:17:59.210Z,0
2017-10-21T03:18:59.531Z,0
2017-10-21T03:19:59.195Z,0
2017-10-21T03:20:59.505Z,0
2017-10-21T03:21:59.498Z,0
2017-10-21T03:22:59.491Z,0
2017-10-21T03:23:59.486Z,0
2017-10-21T03:24:59.484Z,0
2017-10-21T03:25:59.468Z,0
2017-10-21T03:26:59.453Z,0
2017-10-21T03:27:59.449Z,0
2017-10-21T03:28:59.441Z,0
2017-10-21T03:29:58.815Z,0
2017-10-21T03:30:59.103Z,0
2017-10-21T03:31:59.415Z,0
2017-10-21T03:32:59.409Z,0
2017-10-21T03:33:59.399Z,0
2017-10-21T03:34:59.392Z,0
2017-10-21T03:35:59.059Z,0
2017-10-21T03:36:59.051Z,0
2017-10-21T03:37:59.036Z,0
2017-10-21T03:38:59.352Z,0
2017-10-21T03:39:59.355Z,0
2017-10-21T03:40:59.339Z,0
2017-10-21T03:41:59.326Z,0
2017-10-21T03:42:59.323Z,0
2017-10-21T03:43:59.354Z,0
2017-10-21T03:44:59.307Z,0
2017-10-21T03:45:58.655Z,0
2017-10-21T03:46:59.283Z,0
2017-10-21T03:47:59.283Z,0
2017-10-21T03:48:58.941Z,0
2017-10-21T03:49:59.259Z,0
2017-10-21T03:50:59.252Z,0
2017-10-21T03:51:59.243Z,0
2017-10-21T03:52:58.939Z,0
2017-10-21T03:53:59.223Z,0
2017-10-21T03:54:58.886Z,0
2017-10-21T03:55:58.885Z,0
2017-10-21T03:56:59.201Z,0
2017-10-21T03:57:58.866Z,0
2017-10-21T03:58:59.186Z,0
2017-10-21T03:59:59.171Z,0
2017-10-21T04:00:58.840Z,0
2017-10-21T04:01:58.835Z,0
2017-10-21T04:02:58.823Z,0
2017-10-21T04:03:59.136Z,0
2017-10-21T04:04:59.141Z,0
2017-10-21T04:05:59.129Z,0
2017-10-21T04:06:58.794Z,0
2017-10-21T04:07:59.118Z,0
2017-10-21T04:08:58.453Z,0
2017-10-21T04:09:59.087Z,0
2017-10-21T04:10:58.766Z,0
2017-10-21T04:11:59.072Z,0
2017-10-21T04:12:59.070Z,0
2017-10-21T04:13:58.733Z,0
2017-10-21T04:14:58.724Z,0
2017-10-21T04:15:58.708Z,0
2017-10-21T04:16:59.033Z,0
2017-10-21T04:17:58.698Z,0
2017-10-21T04:18:59.015Z,0
2017-10-21T04:19:59.017Z,0
2017-10-21T04:20:59.021Z,0
2017-10-21T04:21:58.987Z,0
2017-10-21T04:22:58.980Z,0
2017-10-21T04:23:58.974Z,0
2017-10-21T04:24:58.960Z,0
2017-10-21T04:25:58.958Z,0
2017-10-21T04:26:58.631Z,0
2017-10-21T04:27:58.938Z,0
2017-10-21T04:28:58.930Z,0
2017-10-21T04:29:58.918Z,0
2017-10-21T04:30:58.912Z,0
2017-10-21T04:31:58.266Z,0
2017-10-21T04:32:58.898Z,0
2017-10-21T04:33:58.885Z,0
2017-10-21T04:34:58.554Z,0
2017-10-21T04:35:58.873Z,0
2017-10-21T04:36:58.858Z,0
2017-10-21T04:37:58.534Z,0
2017-10-21T04:38:58.841Z,0
2017-10-21T04:39:58.836Z,0
2017-10-21T04:40:58.504Z,0
2017-10-21T04:41:58.821Z,0
2017-10-21T04:42:58.815Z,0
2017-10-21T04:43:58.824Z,0
2017-10-21T04:44:58.466Z,0
2017-10-21T04:45:58.789Z,0
2017-10-21T04:46:58.781Z,0
2017-10-21T04:47:58.778Z,0
2017-10-21T04:48:58.763Z,0
2017-10-21T04:49:58.759Z,0
2017-10-21T04:50:58.753Z,0
2017-10-21T04:51:58.740Z,0
2017-10-21T04:52:58.749Z,0
2017-10-21T04:53:58.761Z,0
2017-10-21T04:54:58.710Z,0
2017-10-21T04:55:58.388Z,0
2017-10-21T04:56:58.703Z,0
2017-10-21T04:57:58.696Z,0
2017-10-21T04:58:58.365Z,0
2017-10-21T04:59:58.677Z,0
2017-10-21T05:00:58.340Z,0
2017-10-21T05:01:58.344Z,0
2017-10-21T05:02:58.651Z,0
2017-10-21T05:03:58.646Z,0
2017-10-21T05:04:58.638Z,0
2017-10-21T05:05:58.300Z,0
2017-10-21T05:06:58.293Z,0
2017-10-21T05:07:58.614Z,0
2017-10-21T05:08:58.599Z,0
2017-10-21T05:09:58.597Z,0
2017-10-21T05:10:58.262Z,4
2017-10-21T05:11:58.578Z,4
2017-10-21T05:12:58.570Z,0
2017-10-21T05:13:58.555Z,4
2017-10-21T05:14:58.563Z,4
2017-10-21T05:15:58.218Z,8
2017-10-21T05:16:58.539Z,8
2017-10-21T05:17:58.524Z,8
2017-10-21T05:18:58.517Z,8
2017-10-21T05:19:58.508Z,8
2017-10-21T05:20:58.514Z,16
2017-10-21T05:21:58.173Z,16
2017-10-21T05:22:58.482Z,16
2017-10-21T05:23:58.477Z,24
2017-10-21T05:24:58.149Z,24
2017-10-21T05:25:58.457Z,28
2017-10-21T05:26:58.460Z,32
2017-10-21T05:27:57.806Z,40
2017-10-21T05:28:58.444Z,48
2017-10-21T05:29:58.431Z,52
2017-10-21T05:30:58.435Z,60
2017-10-21T05:31:58.415Z,72
2017-10-21T05:32:58.076Z,84
2017-10-21T05:33:58.396Z,96
2017-10-21T05:34:58.392Z,112
2017-10-21T05:35:58.055Z,128
2017-10-21T05:36:58.368Z,144
2017-10-21T05:37:58.366Z,164
2017-10-21T05:38:58.354Z,184
2017-10-21T05:39:58.345Z,204
2017-10-21T05:40:58.334Z,232
2017-10-21T05:41:58.331Z,260
2017-10-21T05:42:58.316Z,288
2017-10-21T05:43:58.322Z,316
2017-10-21T05:44:58.317Z,332
2017-10-21T05:45:58.303Z,344
2017-10-21T05:46:58.296Z,348
2017-10-21T05:47:57.953Z,348
2017-10-21T05:48:58.278Z,360
2017-10-21T05:49:58.288Z,376
2017-10-21T05:50:57.613Z,384
2017-10-21T05:51:58.242Z,408
2017-10-21T05:52:58.247Z,448
2017-10-21T05:53:58.230Z,488
2017-10-21T05:54:57.573Z,508
2017-10-21T05:55:58.229Z,520
2017-10-21T05:56:58.207Z,540
2017-10-21T05:57:58.202Z,576
2017-10-21T05:58:58.196Z,596
2017-10-21T05:59:57.871Z,632
2017-10-21T06:00:58.183Z,704
2017-10-21T06:01:57.843Z,796
2017-10-21T06:02:58.163Z,880
2017-10-21T06:03:57.830Z,928
2017-10-21T06:04:57.826Z,948
2017-10-21T06:05:57.488Z,1016
2017-10-21T06:06:58.131Z,1104
2017-10-21T06:07:58.123Z,1192
2017-10-21T06:08:58.110Z,1276
2017-10-21T06:09:58.107Z,1360
2017-10-21T06:10:58.100Z,1456
2017-10-21T06:11:58.100Z,1584
2017-10-21T06:12:58.091Z,1704
2017-10-21T06:13:58.083Z,1784
2017-10-21T06:14:58.066Z,1868
2017-10-21T06:15:58.073Z,1964
2017-10-21T06:16:58.051Z,2132
2017-10-21T06:17:58.042Z,2384
2017-10-21T06:18:58.038Z,2620
2017-10-21T06:19:57.707Z,2820
2017-10-21T06:20:58.019Z,3052
2017-10-21T06:21:58.042Z,3232
2017-10-21T06:22:57.682Z,3352
2017-10-21T06:23:57.376Z,3464
2017-10-21T06:24:57.993Z,3564
2017-10-21T06:25:57.989Z,3636
2017-10-21T06:26:58.076Z,3656
2017-10-21T06:27:57.970Z,3632
2017-10-21T06:28:57.963Z,3632
2017-10-21T06:29:57.947Z,3596
2017-10-21T06:30:57.944Z,3176
2017-10-21T06:31:57.938Z,2888
2017-10-21T06:32:57.936Z,2604
2017-10-21T06:33:57.926Z,2340
2017-10-21T06:34:57.914Z,2172
2017-10-21T06:35:57.908Z,2120
2017-10-21T06:36:57.905Z,2124
2017-10-21T06:37:57.895Z,2128
2017-10-21T06:38:57.885Z,2120
2017-10-21T06:39:57.561Z,2124
2017-10-21T06:40:57.874Z,2152
2017-10-21T06:41:57.898Z,2220
2017-10-21T06:42:57.859Z,2308
2017-10-21T06:43:57.852Z,2364
2017-10-21T06:44:57.840Z,2388
2017-10-21T06:45:57.515Z,2404
2017-10-21T06:46:57.834Z,2432
2017-10-21T06:47:57.502Z,2468
2017-10-21T06:48:57.827Z,2504
2017-10-21T06:49:57.817Z,2564
2017-10-21T06:50:57.809Z,2628
2017-10-21T06:51:57.478Z,2704
2017-10-21T06:52:57.792Z,2816
2017-10-21T06:53:57.460Z,2988
2017-10-21T06:54:57.773Z,3200
2017-10-21T06:55:57.769Z,3304
2017-10-21T06:56:57.794Z,3356
2017-10-21T06:57:57.436Z,3524
2017-10-21T06:58:57.424Z,3664
2017-10-21T06:59:57.424Z,3492
2017-10-21T07:00:57.410Z,3328
2017-10-21T07:01:57.732Z,3324
2017-10-21T07:02:57.399Z,3284
2017-10-21T07:03:57.721Z,3292
2017-10-21T07:04:57.738Z,3332
2017-10-21T07:05:57.697Z,3212
2017-10-21T07:06:57.368Z,3092
2017-10-21T07:07:57.683Z,3104
2017-10-21T07:08:57.679Z,3200
2017-10-21T07:09:57.678Z,3324
2017-10-21T07:10:57.344Z,3412
2017-10-21T07:11:57.335Z,3388
2017-10-21T07:12:57.651Z,3304
2017-10-21T07:13:57.648Z,3188
2017-10-21T07:14:57.636Z,3076
2017-10-21T07:15:57.636Z,3032
2017-10-21T07:16:57.312Z,3064
2017-10-21T07:17:57.619Z,3044
2017-10-21T07:18:57.612Z,3064
2017-10-21T07:19:56.957Z,3176
2017-10-21T07:20:57.278Z,3012
2017-10-21T07:21:57.593Z,3064
2017-10-21T07:22:57.579Z,3156
2017-10-21T07:23:57.259Z,3688
2017-10-21T07:24:57.247Z,4572
2017-10-21T07:25:57.565Z,4512
2017-10-21T07:26:57.552Z,4120
2017-10-21T07:27:57.557Z,4100
2017-10-21T07:28:57.542Z,3984
2017-10-21T07:29:57.558Z,4192
2017-10-21T07:30:57.209Z,4580
2017-10-21T07:31:57.525Z,4944
2017-10-21T07:32:57.514Z,5184
2017-10-21T07:33:56.867Z,5292
2017-10-21T07:34:57.507Z,5428
2017-10-21T07:35:57.503Z,5572
2017-10-21T07:36:57.497Z,5716
2017-10-21T07:37:57.488Z,5816
2017-10-21T07:38:57.476Z,5808
2017-10-21T07:39:57.479Z,5864
2017-10-21T07:40:57.482Z,5984
2017-10-21T07:41:57.143Z,6224
2017-10-21T07:42:57.137Z,6492
2017-10-21T07:43:57.461Z,6772
2017-10-21T07:44:57.117Z,6936
2017-10-21T07:45:57.482Z,7064
2017-10-21T07:46:57.105Z,7200
2017-10-21T07:47:56.779Z,7304
2017-10-21T07:48:57.414Z,7348
2017-10-21T07:49:57.093Z,7336
2017-10-21T07:50:57.403Z,7424
2017-10-21T07:51:57.402Z,7528
2017-10-21T07:52:57.068Z,7576
2017-10-21T07:53:57.390Z,7596
2017-10-21T07:54:57.404Z,7644
2017-10-21T07:55:57.376Z,7800
2017-10-21T07:56:57.048Z,7948
2017-10-21T07:57:57.039Z,8096
2017-10-21T07:58:57.368Z,8292
2017-10-21T07:59:57.351Z,8400
2017-10-21T08:00:57.342Z,8348
2017-10-21T08:01:57.336Z,8272
2017-10-21T08:02:57.336Z,8276
2017-10-21T08:03:57.351Z,8336
2017-10-21T08:04:57.578Z,8396
2017-10-21T08:05:56.670Z,8444
2017-10-21T08:06:57.312Z,8492
2017-10-21T08:07:56.984Z,8588
2017-10-21T08:08:57.308Z,8736
2017-10-21T08:09:56.653Z,8828
2017-10-21T08:10:56.965Z,8836
2017-10-21T08:11:57.000Z,8788
2017-10-21T08:12:57.282Z,8724
2017-10-21T08:13:56.954Z,8660
2017-10-21T08:14:57.274Z,8560
2017-10-21T08:15:56.952Z,8444
2017-10-21T08:16:57.263Z,8336
2017-10-21T08:17:57.255Z,8276
2017-10-21T08:18:56.926Z,8204
2017-10-21T08:19:57.254Z,8116
2017-10-21T08:20:57.247Z,8012
2017-10-21T08:21:57.239Z,7888
2017-10-21T08:22:57.230Z,7752
2017-10-21T08:23:57.237Z,7640
2017-10-21T08:24:57.217Z,7556
2017-10-21T08:25:57.212Z,7516
2017-10-21T08:26:57.218Z,7516
2017-10-21T08:27:57.207Z,7500
2017-10-21T08:28:57.199Z,7460
2017-10-21T08:29:57.198Z,7384
2017-10-21T08:30:57.189Z,7340
2017-10-21T08:31:56.858Z,7316
2017-10-21T08:32:57.177Z,7264
2017-10-21T08:33:57.168Z,7184
2017-10-21T08:34:57.173Z,7108
2017-10-21T08:35:57.090Z,7020
2017-10-21T08:36:57.164Z,6952
2017-10-21T08:37:57.147Z,6932
2017-10-21T08:38:57.484Z,6908
2017-10-21T08:39:57.147Z,6896
2017-10-21T08:40:57.140Z,6932
2017-10-21T08:41:57.132Z,6992
2017-10-21T08:42:57.126Z,7088
2017-10-21T08:43:57.123Z,7152
2017-10-21T08:44:56.793Z,7192
2017-10-21T08:45:57.114Z,7264
2017-10-21T08:46:56.789Z,7348
2017-10-21T08:47:57.103Z,7416
2017-10-21T08:48:56.446Z,7432
2017-10-21T08:49:56.765Z,7476
2017-10-21T08:50:56.770Z,7504
2017-10-21T08:51:57.075Z,7492
2017-10-21T08:52:57.084Z,7516
2017-10-21T08:53:56.744Z,7504
2017-10-21T08:54:57.073Z,7484
2017-10-21T08:55:56.782Z,7404
2017-10-21T08:56:57.051Z,7324
2017-10-21T08:57:57.054Z,7280
2017-10-21T08:58:57.042Z,7388
2017-10-21T08:59:57.035Z,7608
2017-10-21T09:00:56.716Z,7896
2017-10-21T09:01:56.704Z,8168
2017-10-21T09:02:56.376Z,8372
2017-10-21T09:03:57.015Z,8528
2017-10-21T09:04:57.009Z,8656
2017-10-21T09:05:56.685Z,8756
2017-10-21T09:06:57.030Z,8836
2017-10-21T09:07:56.362Z,8880
2017-10-21T09:08:56.989Z,8864
2017-10-21T09:09:56.999Z,8856
2017-10-21T09:10:56.652Z,8864
2017-10-21T09:11:56.325Z,8880
2017-10-21T09:12:56.971Z,8900
2017-10-21T09:13:56.645Z,8912
2017-10-21T09:14:56.965Z,8900
2017-10-21T09:15:56.630Z,8868
2017-10-21T09:16:56.962Z,8812
2017-10-21T09:17:56.640Z,8696
2017-10-21T09:18:56.938Z,8532
2017-10-21T09:19:56.931Z,8376
2017-10-21T09:20:56.605Z,8284
2017-10-21T09:21:56.279Z,8280
2017-10-21T09:22:56.269Z,8280
2017-10-21T09:23:56.976Z,8204
2017-10-21T09:24:56.915Z,8088
2017-10-21T09:25:56.914Z,8012
2017-10-21T09:26:56.257Z,7936
2017-10-21T09:27:56.895Z,7888
2017-10-21T09:28:56.903Z,7880
2017-10-21T09:29:56.884Z,7884
2017-10-21T09:30:56.874Z,7888
2017-10-21T09:31:56.879Z,7832
2017-10-21T09:32:56.860Z,7756
2017-10-21T09:33:56.864Z,7680
2017-10-21T09:34:56.858Z,7612
2017-10-21T09:35:56.852Z,7568
2017-10-21T09:36:56.852Z,7428
2017-10-21T09:37:56.843Z,7244
2017-10-21T09:38:56.839Z,7124
2017-10-21T09:39:56.837Z,7028
2017-10-21T09:40:56.825Z,6996
2017-10-21T09:41:56.504Z,6932
2017-10-21T09:42:56.498Z,6888
2017-10-21T09:43:56.851Z,6900
2017-10-21T09:44:56.810Z,6868
2017-10-21T09:45:56.814Z,6860
2017-10-21T09:46:56.799Z,6816
2017-10-21T09:47:56.795Z,6784
2017-10-21T09:48:56.787Z,6828
2017-10-21T09:49:56.796Z,6900
2017-10-21T09:50:56.128Z,7004
2017-10-21T09:51:56.788Z,7168
2017-10-21T09:52:56.767Z,7264
2017-10-21T09:53:56.449Z,7316
2017-10-21T09:54:56.433Z,7244
2017-10-21T09:55:56.434Z,7100
2017-10-21T09:56:56.742Z,6888
2017-10-21T09:57:56.756Z,6724
2017-10-21T09:58:56.418Z,6660
2017-10-21T09:59:56.738Z,6720
2017-10-21T10:00:56.727Z,6896
2017-10-21T10:01:56.394Z,7096
2017-10-21T10:02:56.723Z,7272
2017-10-21T10:03:56.400Z,7400
2017-10-21T10:04:56.700Z,7468
2017-10-21T10:05:56.702Z,7484
2017-10-21T10:06:56.695Z,7472
2017-10-21T10:07:56.369Z,7360
2017-10-21T10:08:56.369Z,7160
2017-10-21T10:09:56.677Z,6940
2017-10-21T10:10:56.361Z,6816
2017-10-21T10:11:56.339Z,6812
2017-10-21T10:12:56.339Z,6936
2017-10-21T10:13:56.656Z,7156
2017-10-21T10:14:56.661Z,7360
2017-10-21T10:15:56.648Z,7580
2017-10-21T10:16:56.647Z,7828
2017-10-21T10:17:56.643Z,8120
2017-10-21T10:18:56.629Z,8464
2017-10-21T10:19:56.654Z,8748
2017-10-21T10:20:56.301Z,9032
2017-10-21T10:21:56.615Z,9288
2017-10-21T10:22:55.964Z,9416
2017-10-21T10:23:56.600Z,9604
2017-10-21T10:24:56.608Z,9864
2017-10-21T10:25:56.270Z,10060
2017-10-21T10:26:56.602Z,10176
2017-10-21T10:27:56.591Z,10160
2017-10-21T10:28:56.581Z,10036
2017-10-21T10:29:56.247Z,9888
2017-10-21T10:30:56.571Z,9800
2017-10-21T10:31:56.561Z,9772
2017-10-21T10:32:56.234Z,9768
2017-10-21T10:33:56.231Z,9780
2017-10-21T10:34:56.551Z,9740
2017-10-21T10:35:56.543Z,9676
2017-10-21T10:36:56.245Z,9532
2017-10-21T10:37:56.534Z,9460
2017-10-21T10:38:56.541Z,9344
2017-10-21T10:39:56.203Z,9216
2017-10-21T10:40:56.788Z,9120
2017-10-21T10:41:56.545Z,9040
2017-10-21T10:42:56.513Z,8960
2017-10-21T10:43:56.179Z,8944
2017-10-21T10:44:56.195Z,8904
2017-10-21T10:45:56.499Z,8832
2017-10-21T10:46:56.490Z,8772
2017-10-21T10:47:56.496Z,8768
2017-10-21T10:48:56.157Z,8792
2017-10-21T10:49:56.494Z,8860
2017-10-21T10:50:56.160Z,9008
2017-10-21T10:51:56.482Z,9240
2017-10-21T10:52:56.146Z,9512
2017-10-21T10:53:56.147Z,9576
2017-10-21T10:54:56.137Z,9444
2017-10-21T10:55:56.128Z,9220
2017-10-21T10:56:56.458Z,8936
2017-10-21T10:57:56.124Z,8708
2017-10-21T10:58:56.116Z,8596
2017-10-21T10:59:56.111Z,8604
2017-10-21T11:00:56.430Z,8772
2017-10-21T11:01:56.435Z,9040
2017-10-21T11:02:56.095Z,9388
2017-10-21T11:03:56.094Z,9812
2017-10-21T11:04:56.407Z,10356
2017-10-21T11:05:56.404Z,10968
2017-10-21T11:06:56.420Z,11500
2017-10-21T11:07:55.755Z,11764
2017-10-21T11:08:55.747Z,11796
2017-10-21T11:09:56.064Z,11704
2017-10-21T11:10:55.737Z,11436
2017-10-21T11:11:56.388Z,10980
2017-10-21T11:12:55.405Z,10512
2017-10-21T11:13:56.383Z,10348
2017-10-21T11:14:56.380Z,10308
2017-10-21T11:15:56.046Z,10232
2017-10-21T11:16:56.355Z,9912
2017-10-21T11:17:55.708Z,9588
2017-10-21T11:18:56.349Z,9444
2017-10-21T11:19:56.356Z,9436
2017-10-21T11:20:56.339Z,9416
2017-10-21T11:21:56.013Z,9360
2017-10-21T11:22:56.016Z,9360
2017-10-21T11:23:56.329Z,9416
2017-10-21T11:24:56.339Z,9468
2017-10-21T11:25:56.318Z,9492
2017-10-21T11:26:55.999Z,9536
2017-10-21T11:27:56.312Z,9608
2017-10-21T11:28:56.317Z,9676
2017-10-21T11:29:56.303Z,9716
2017-10-21T11:30:56.303Z,9700
2017-10-21T11:31:56.325Z,9576
2017-10-21T11:32:56.303Z,9344
2017-10-21T11:33:55.969Z,9124
2017-10-21T11:34:56.291Z,8932
2017-10-21T11:35:55.958Z,8708
2017-10-21T11:36:55.955Z,8384
2017-10-21T11:37:55.950Z,7924
2017-10-21T11:38:56.266Z,7464
2017-10-21T11:39:56.264Z,7156
2017-10-21T11:40:55.936Z,7076
2017-10-21T11:41:55.950Z,7164
2017-10-21T11:42:56.255Z,7300
2017-10-21T11:43:55.930Z,7444
2017-10-21T11:44:56.260Z,7592
2017-10-21T11:45:56.232Z,7716
2017-10-21T11:46:55.591Z,7784
2017-10-21T11:47:55.905Z,7712
2017-10-21T11:48:55.906Z,7576
2017-10-21T11:49:56.232Z,7448
2017-10-21T11:50:55.898Z,7384
2017-10-21T11:51:56.215Z,7344
2017-10-21T11:52:55.882Z,7268
2017-10-21T11:53:55.562Z,7092
2017-10-21T11:54:55.875Z,6840
2017-10-21T11:55:55.876Z,6636
2017-10-21T11:56:56.197Z,6608
2017-10-21T11:57:56.194Z,6756
2017-10-21T11:58:55.863Z,7032
2017-10-21T11:59:55.861Z,7404
2017-10-21T12:00:55.854Z,7796
2017-10-21T12:01:56.184Z,8152
2017-10-21T12:02:56.169Z,8492
2017-10-21T12:03:56.170Z,8860
2017-10-21T12:04:56.171Z,9160
2017-10-21T12:05:56.154Z,9348
2017-10-21T12:06:55.832Z,9412
2017-10-21T12:07:55.820Z,9384
2017-10-21T12:08:55.826Z,9172
2017-10-21T12:09:56.137Z,9024
2017-10-21T12:10:56.135Z,9000
2017-10-21T12:11:56.128Z,9104
2017-10-21T12:12:55.803Z,9088
2017-10-21T12:13:56.119Z,8836
2017-10-21T12:14:56.120Z,8456
2017-10-21T12:15:56.134Z,8192
2017-10-21T12:16:56.108Z,8068
2017-10-21T12:17:56.102Z,8068
2017-10-21T12:18:56.103Z,8204
2017-10-21T12:19:56.088Z,8500
2017-10-21T12:20:56.092Z,8884
2017-10-21T12:21:56.097Z,9300
2017-10-21T12:22:56.086Z,9676
2017-10-21T12:23:56.093Z,9964
2017-10-21T12:24:56.074Z,10108
2017-10-21T12:25:55.746Z,10112
2017-10-21T12:26:56.077Z,10072
2017-10-21T12:27:56.062Z,9984
2017-10-21T12:28:55.736Z,9840
2017-10-21T12:29:55.730Z,9644
2017-10-21T12:30:55.725Z,9492
2017-10-21T12:31:56.045Z,9408
2017-10-21T12:32:55.721Z,9380
2017-10-21T12:33:56.030Z,9324
2017-10-21T12:34:56.037Z,9172
2017-10-21T12:35:55.710Z,8896
2017-10-21T12:36:56.025Z,8636
2017-10-21T12:37:55.700Z,8588
2017-10-21T12:38:56.033Z,8628
2017-10-21T12:39:55.359Z,8712
2017-10-21T12:40:56.002Z,8868
2017-10-21T12:41:56.009Z,8960
2017-10-21T12:42:55.675Z,8964
2017-10-21T12:43:55.991Z,8948
2017-10-21T12:44:55.985Z,8916
2017-10-21T12:45:55.667Z,8848
2017-10-21T12:46:55.335Z,8788
2017-10-21T12:47:55.978Z,8716
2017-10-21T12:48:55.973Z,8608
2017-10-21T12:49:55.970Z,8408
2017-10-21T12:50:55.636Z,8148
2017-10-21T12:51:55.958Z,7872
2017-10-21T12:52:55.633Z,7580
2017-10-21T12:53:55.302Z,7264
2017-10-21T12:54:55.624Z,6928
2017-10-21T12:55:55.294Z,6648
2017-10-21T12:56:55.948Z,6392
2017-10-21T12:57:55.617Z,6140
2017-10-21T12:58:55.936Z,5904
2017-10-21T12:59:55.608Z,5780
2017-10-21T13:00:55.926Z,5880
2017-10-21T13:01:55.947Z,6268
2017-10-21T13:02:55.907Z,6840
2017-10-21T13:03:55.912Z,7412
2017-10-21T13:04:55.579Z,7780
2017-10-21T13:05:55.916Z,7988
2017-10-21T13:06:55.902Z,8084
2017-10-21T13:07:55.898Z,8120
2017-10-21T13:08:55.900Z,8168
2017-10-21T13:09:55.560Z,8248
2017-10-21T13:10:55.881Z,8352
2017-10-21T13:11:55.552Z,8516
2017-10-21T13:12:55.546Z,8660
2017-10-21T13:13:55.870Z,8700
2017-10-21T13:14:55.535Z,8572
2017-10-21T13:15:55.859Z,8364
2017-10-21T13:16:55.852Z,8232
2017-10-21T13:17:55.845Z,8140
2017-10-21T13:18:55.840Z,8048
2017-10-21T13:19:55.837Z,8088
2017-10-21T13:20:55.832Z,8196
2017-10-21T13:21:55.509Z,8328
2017-10-21T13:22:55.827Z,8340
2017-10-21T13:23:55.526Z,8320
2017-10-21T13:24:55.820Z,8412
2017-10-21T13:25:55.167Z,8560
2017-10-21T13:26:55.806Z,8704
2017-10-21T13:27:55.808Z,8716
2017-10-21T13:28:55.802Z,8652
2017-10-21T13:29:55.791Z,8616
2017-10-21T13:30:55.464Z,8568
2017-10-21T13:31:55.785Z,8428
2017-10-21T13:32:55.783Z,8184
2017-10-21T13:33:55.475Z,7904
2017-10-21T13:34:55.773Z,7544
2017-10-21T13:35:55.784Z,7188
2017-10-21T13:36:55.442Z,6884
2017-10-21T13:37:55.768Z,6740
2017-10-21T13:38:55.760Z,6748
2017-10-21T13:39:55.755Z,6780
2017-10-21T13:40:55.421Z,6752
2017-10-21T13:41:55.738Z,6656
2017-10-21T13:42:55.426Z,6620
2017-10-21T13:43:55.744Z,6716
2017-10-21T13:44:55.730Z,6988
2017-10-21T13:45:55.735Z,7388
2017-10-21T13:46:55.398Z,7656
2017-10-21T13:47:55.726Z,7796
2017-10-21T13:48:55.389Z,7756
2017-10-21T13:49:55.386Z,7548
2017-10-21T13:50:55.705Z,7336